Russell Township, Ohio
Current Conditions -  °F | °C
As of 10:45 PM on Thursday 30 Oct 2014 (Local Time) from KCGF Reporting Station
Broken Clouds Broken Clouds  
Wind Chill:   Ceiling: 20000
Heat Index:   Visibility: 20mi
Dew Point:   Wind: 7mph
Humidity: 93%   Direction: 180°S
Pressure: 30.05"   Gusts: NA
Location:  41.4688°N, 81.3252°W
Report Text: KCGF 310245Z 18006KT 20SM SCT065 BKN200 04/03 A3005
Loading
Personal Weather Stations






























Interactive Weather Map
Tropical Storm Tracking
New forecast layout! Learn more

10-Day Weather Forecast

Advertisements
Track Severe Weather on mobile